Strona główna
METAR-TAF:

METAR-TAF

Lotnisko :

Meiringen, Szwajcaria

Szerokość geograficzna: 46-44-25N, Długość geograficzna: 8-06-36E, wysokość: 577 m

Aktualna obserwacja pogody

Raport powstał 28 minut temu, godzina 08:20 UTC
Wiatr 1 kt z kierunków zmiennych
Temperatura 4°C
Wilgotność 93%
Ciśnienie 1009 hPa
Widzialność: 7000 m
Rozproszone chmury na wysokości 2100 ft
Rozproszone chmury na wysokości 2900 ft
Zachmurzenie całkowite na wysokości 4700 ft

METAR: LSMM 120820Z AUTO VRB01KT 7000NDV SCT021 SCT029 OVC047 04/03 Q1009 RMK

czas: 09:48 (08:48 UTC)


TAF: brakujący

Obserwacja i prognoza pogody dla ponad 4000 lotnisk (raport METAR i TAF).

Dostępne stacje oznaczono żółtymi i czerwonymi punktami na mapie.

Najedź kursorem aby zobaczyć nazwę stacji.

Kliknij aby zobaczyć obserwacje i prognozy pogody.

Aby zmienić mapę: kliknij na zielony przycisk z czarnym krzyżykiem, aby powiększyć; na zielony przycisk z myślnikiem, aby pomniejszyć; na zielone strzałki, aby przejść do map sąsiednich.


METAR-TAF: